createdAt,value
2017-02-21T00:00:17.328Z,1009.51
2017-02-21T00:01:27.064Z,1009.51
2017-02-21T00:02:35.997Z,1009.51
2017-02-21T00:03:45.486Z,1009.41
2017-02-21T00:04:54.411Z,1009.34
2017-02-21T00:06:03.350Z,1009.29
2017-02-21T00:07:12.694Z,1009.31
2017-02-21T00:08:21.623Z,1009.25
2017-02-21T00:09:30.598Z,1009.22
2017-02-21T00:10:40.388Z,1009.21
2017-02-21T00:11:49.365Z,1009.24
2017-02-21T00:12:58.717Z,1009.17
2017-02-21T00:14:08.473Z,1009.19
2017-02-21T00:15:18.782Z,1009.15
2017-02-21T00:16:28.113Z,1009.16
2017-02-21T00:17:37.870Z,1009.15
2017-02-21T00:18:47.646Z,1009.13
2017-02-21T00:19:57.403Z,1009.2
2017-02-21T00:21:06.582Z,1009.25
2017-02-21T00:22:15.963Z,1009.16
2017-02-21T00:23:25.290Z,1009.06
2017-02-21T00:24:34.245Z,1009.06
2017-02-21T00:25:44.003Z,1009.04
2017-02-21T00:26:52.999Z,1009.12
2017-02-21T00:28:02.336Z,1009.16
2017-02-21T00:29:11.294Z,1009.1
2017-02-21T00:30:20.624Z,1009.06
2017-02-21T00:31:31.188Z,1009.09
2017-02-21T00:32:40.672Z,1009.12
2017-02-21T00:33:50.005Z,1009.15
2017-02-21T00:34:58.939Z,1009.09
2017-02-21T00:36:08.278Z,1009.06
2017-02-21T00:37:18.025Z,1009.04
2017-02-21T00:38:28.227Z,1009.08
2017-02-21T00:39:37.157Z,1009.05
2017-02-21T00:40:46.917Z,1009.06
2017-02-21T00:41:57.073Z,1009.06
2017-02-21T00:43:06.413Z,1009.11
2017-02-21T00:44:15.755Z,1009.16
2017-02-21T00:45:25.535Z,1009.15
2017-02-21T00:46:36.103Z,1009.18
2017-02-21T00:47:45.433Z,1009.17
2017-02-21T00:48:54.779Z,1009.11
2017-02-21T00:50:04.648Z,1009.04
2017-02-21T00:51:13.588Z,1009.05
2017-02-21T00:52:22.513Z,1009.04
2017-02-21T00:53:31.444Z,1009.12
2017-02-21T00:54:41.202Z,1009.07
2017-02-21T00:55:50.795Z,1009.06
2017-02-21T00:57:00.550Z,1009.12
2017-02-21T00:58:09.479Z,1009.13
2017-02-21T00:59:18.825Z,1009.14
2017-02-21T01:00:28.975Z,1009.13
2017-02-21T01:01:38.398Z,1009.14
2017-02-21T01:02:48.134Z,1009.18
2017-02-21T01:03:57.487Z,1009.16
2017-02-21T01:05:06.830Z,1009.18
2017-02-21T01:06:16.188Z,1009.14
2017-02-21T01:07:26.121Z,1009.11
2017-02-21T01:08:35.871Z,1009.09
2017-02-21T01:09:45.212Z,1009.01
2017-02-21T01:10:54.971Z,1009.02
2017-02-21T01:12:05.958Z,1009.03
2017-02-21T01:13:16.714Z,1009.03
2017-02-21T01:14:26.045Z,1009.09
2017-02-21T01:15:35.805Z,1009.14
2017-02-21T01:16:45.563Z,1009.17
2017-02-21T01:17:55.321Z,1009.14
2017-02-21T01:19:05.427Z,1009.09
2017-02-21T01:20:15.166Z,1009.04
2017-02-21T01:21:24.923Z,1009.03
2017-02-21T01:22:33.877Z,1009.01
2017-02-21T01:23:43.206Z,1008.96
2017-02-21T01:24:53.057Z,1008.97
2017-02-21T01:26:03.612Z,1008.91
2017-02-21T01:27:12.984Z,1008.88
2017-02-21T01:28:22.737Z,1008.87
2017-02-21T01:29:32.932Z,1008.89
2017-02-21T01:30:42.835Z,1008.87
2017-02-21T01:31:53.009Z,1008.93
2017-02-21T01:33:02.774Z,1008.98
2017-02-21T01:34:11.698Z,1008.96
2017-02-21T01:35:21.067Z,1008.99
2017-02-21T01:36:31.115Z,1008.99
2017-02-21T01:37:40.454Z,1008.95
2017-02-21T01:38:50.628Z,1008.97
2017-02-21T01:40:01.200Z,1009
2017-02-21T01:41:10.946Z,1008.92
2017-02-21T01:42:20.582Z,1009.01
2017-02-21T01:43:29.527Z,1008.96
2017-02-21T01:44:38.465Z,1009.06
2017-02-21T01:45:47.802Z,1009.06
2017-02-21T01:46:57.550Z,1009.07
2017-02-21T01:48:06.633Z,1009.06
2017-02-21T01:49:15.987Z,1009.02
2017-02-21T01:50:25.749Z,1009.04
2017-02-21T01:51:35.498Z,1009.06
2017-02-21T01:52:45.255Z,1009.04
2017-02-21T01:53:54.885Z,1009.1
2017-02-21T01:55:04.220Z,1009.09
2017-02-21T01:56:13.153Z,1009.08
2017-02-21T01:57:22.937Z,1009.03
2017-02-21T01:58:32.690Z,1009.06
2017-02-21T01:59:42.534Z,1008.97
2017-02-21T02:00:51.484Z,1008.97
2017-02-21T02:02:00.845Z,1008.87
2017-02-21T02:03:09.806Z,1008.91
2017-02-21T02:04:19.153Z,1008.88
2017-02-21T02:05:28.608Z,1008.89
2017-02-21T02:06:37.952Z,1008.85
2017-02-21T02:07:46.885Z,1008.89
2017-02-21T02:08:56.258Z,1008.96
2017-02-21T02:10:06.013Z,1008.91
2017-02-21T02:11:15.014Z,1008.97
2017-02-21T02:12:24.351Z,1008.92
2017-02-21T02:13:33.681Z,1008.97
2017-02-21T02:14:43.028Z,1008.98
2017-02-21T02:15:51.964Z,1009.03
2017-02-21T02:17:02.681Z,1008.95
2017-02-21T02:18:12.422Z,1008.94
2017-02-21T02:19:22.171Z,1008.93
2017-02-21T02:20:31.504Z,1008.96
2017-02-21T02:21:40.435Z,1008.91
2017-02-21T02:22:50.435Z,1008.87
2017-02-21T02:23:59.800Z,1008.72
2017-02-21T02:25:09.152Z,1008.7
2017-02-21T02:26:18.479Z,1008.58
2017-02-21T02:27:27.826Z,1008.6
2017-02-21T02:28:37.735Z,1008.57
2017-02-21T02:29:47.087Z,1008.58
2017-02-21T02:30:56.023Z,1008.54
2017-02-21T02:32:06.193Z,1008.57
2017-02-21T02:33:15.972Z,1008.59
2017-02-21T02:34:25.865Z,1008.68
2017-02-21T02:35:36.022Z,1008.64
2017-02-21T02:36:45.789Z,1008.62
2017-02-21T02:37:55.605Z,1008.57
2017-02-21T02:39:05.356Z,1008.52
2017-02-21T02:40:14.835Z,1008.54
2017-02-21T02:41:24.591Z,1008.55
2017-02-21T02:42:34.332Z,1008.55
2017-02-21T02:43:43.743Z,1008.56
2017-02-21T02:44:53.096Z,1008.59
2017-02-21T02:46:02.744Z,1008.53
2017-02-21T02:47:12.502Z,1008.57
2017-02-21T02:48:21.859Z,1008.64
2017-02-21T02:49:31.195Z,1008.6
2017-02-21T02:50:40.953Z,1008.64
2017-02-21T02:51:50.559Z,1008.66
2017-02-21T02:52:59.900Z,1008.62
2017-02-21T02:54:09.652Z,1008.6
2017-02-21T02:55:19.003Z,1008.63
2017-02-21T02:56:28.749Z,1008.7
2017-02-21T02:57:38.235Z,1008.69
2017-02-21T02:58:47.571Z,1008.59
2017-02-21T02:59:57.721Z,1008.59
2017-02-21T03:01:07.888Z,1008.59
2017-02-21T03:02:17.246Z,1008.51
2017-02-21T03:03:26.635Z,1008.55
2017-02-21T03:04:35.566Z,1008.52
2017-02-21T03:05:44.944Z,1008.5
2017-02-21T03:06:55.095Z,1008.6
2017-02-21T03:08:05.271Z,1008.55
2017-02-21T03:09:14.752Z,1008.53
2017-02-21T03:10:24.102Z,1008.54
2017-02-21T03:11:33.841Z,1008.57
2017-02-21T03:12:43.201Z,1008.61
2017-02-21T03:13:52.541Z,1008.59
2017-02-21T03:15:01.948Z,1008.7
2017-02-21T03:16:10.877Z,1008.67
2017-02-21T03:17:20.629Z,1008.64
2017-02-21T03:18:30.382Z,1008.71
2017-02-21T03:19:39.729Z,1008.66
2017-02-21T03:20:50.043Z,1008.69
2017-02-21T03:21:59.811Z,1008.68
2017-02-21T03:23:09.576Z,1008.66
2017-02-21T03:24:18.515Z,1008.58
2017-02-21T03:25:28.689Z,1008.55
2017-02-21T03:26:37.919Z,1008.5
2017-02-21T03:27:47.670Z,1008.56
2017-02-21T03:28:57.826Z,1008.47
2017-02-21T03:30:07.179Z,1008.51
2017-02-21T03:31:16.925Z,1008.47
2017-02-21T03:32:26.826Z,1008.52
2017-02-21T03:33:36.569Z,1008.5
2017-02-21T03:34:46.322Z,1008.46
2017-02-21T03:35:56.059Z,1008.43
2017-02-21T03:37:05.806Z,1008.45
2017-02-21T03:38:14.788Z,1008.38
2017-02-21T03:39:24.554Z,1008.4
2017-02-21T03:40:34.330Z,1008.36
2017-02-21T03:41:44.067Z,1008.34
2017-02-21T03:42:53.824Z,1008.27
2017-02-21T03:44:03.626Z,1008.27
2017-02-21T03:45:12.951Z,1008.32
2017-02-21T03:46:22.703Z,1008.37
2017-02-21T03:47:32.045Z,1008.35
2017-02-21T03:48:42.203Z,1008.29
2017-02-21T03:49:51.591Z,1008.25
2017-02-21T03:51:00.516Z,1008.28
2017-02-21T03:52:10.679Z,1008.31
2017-02-21T03:53:20.457Z,1008.36
2017-02-21T03:54:29.800Z,1008.43
2017-02-21T03:55:39.210Z,1008.43
2017-02-21T03:56:48.559Z,1008.49
2017-02-21T03:57:57.904Z,1008.52
2017-02-21T03:59:07.662Z,1008.56
2017-02-21T04:00:17.430Z,1008.48
2017-02-21T04:01:26.827Z,1008.46
2017-02-21T04:02:36.580Z,1008.39
2017-02-21T04:03:45.948Z,1008.46
2017-02-21T04:04:55.709Z,1008.48
2017-02-21T04:06:05.051Z,1008.42
2017-02-21T04:07:14.240Z,1008.52
2017-02-21T04:08:23.591Z,1008.44
2017-02-21T04:09:32.928Z,1008.54
2017-02-21T04:10:42.693Z,1008.54
2017-02-21T04:11:52.436Z,1008.6
2017-02-21T04:13:01.798Z,1008.65
2017-02-21T04:14:11.133Z,1008.58
2017-02-21T04:15:20.887Z,1008.54
2017-02-21T04:16:29.819Z,1008.57
2017-02-21T04:17:39.576Z,1008.54
2017-02-21T04:18:48.580Z,1008.5
2017-02-21T04:19:58.762Z,1008.49
2017-02-21T04:21:07.703Z,1008.43
2017-02-21T04:22:16.652Z,1008.56
2017-02-21T04:23:26.421Z,1008.53
2017-02-21T04:24:35.945Z,1008.54
2017-02-21T04:25:45.700Z,1008.41
2017-02-21T04:26:54.659Z,1008.54
2017-02-21T04:28:03.579Z,1008.57
2017-02-21T04:29:12.921Z,1008.63
2017-02-21T04:30:21.851Z,1008.56
2017-02-21T04:31:31.607Z,1008.59
2017-02-21T04:32:40.963Z,1008.62
2017-02-21T04:33:50.300Z,1008.64
2017-02-21T04:34:59.642Z,1008.64
2017-02-21T04:36:09.870Z,1008.75
2017-02-21T04:37:19.647Z,1008.64
2017-02-21T04:38:28.988Z,1008.61
2017-02-21T04:39:38.383Z,1008.56
2017-02-21T04:40:47.759Z,1008.62
2017-02-21T04:41:57.397Z,1008.63
2017-02-21T04:43:06.734Z,1008.61
2017-02-21T04:44:16.501Z,1008.71
2017-02-21T04:45:26.678Z,1008.63
2017-02-21T04:46:36.840Z,1008.67
2017-02-21T04:47:45.838Z,1008.69
2017-02-21T04:48:55.185Z,1008.71
2017-02-21T04:50:04.561Z,1008.74
2017-02-21T04:51:13.914Z,1008.76
2017-02-21T04:52:23.279Z,1008.71
2017-02-21T04:53:33.174Z,1008.76
2017-02-21T04:54:43.325Z,1008.65
2017-02-21T04:55:52.663Z,1008.77
2017-02-21T04:57:02.449Z,1008.78
2017-02-21T04:58:11.781Z,1008.83
2017-02-21T04:59:20.849Z,1008.84
2017-02-21T05:00:31.005Z,1008.88
2017-02-21T05:01:40.761Z,1008.89
2017-02-21T05:02:49.725Z,1008.82
2017-02-21T05:03:58.648Z,1008.88
2017-02-21T05:05:08.152Z,1008.9
2017-02-21T05:06:17.901Z,1008.85
2017-02-21T05:07:26.820Z,1008.85
2017-02-21T05:08:36.981Z,1008.87
2017-02-21T05:09:47.153Z,1008.9
2017-02-21T05:10:56.694Z,1008.84
2017-02-21T05:12:06.038Z,1008.84
2017-02-21T05:13:14.962Z,1008.81
2017-02-21T05:14:23.909Z,1008.81
2017-02-21T05:15:33.666Z,1008.78
2017-02-21T05:16:43.002Z,1008.77
2017-02-21T05:17:51.942Z,1008.79
2017-02-21T05:19:00.858Z,1008.84
2017-02-21T05:20:09.802Z,1008.81
2017-02-21T05:21:19.571Z,1008.78
2017-02-21T05:22:29.064Z,1008.8
2017-02-21T05:23:38.817Z,1008.78
2017-02-21T05:24:48.559Z,1008.82
2017-02-21T05:25:58.726Z,1008.82
2017-02-21T05:27:08.091Z,1008.82
2017-02-21T05:28:18.430Z,1008.87
2017-02-21T05:29:28.188Z,1008.87
2017-02-21T05:30:37.936Z,1008.89
2017-02-21T05:31:47.288Z,1008.96
2017-02-21T05:32:57.047Z,1008.92
2017-02-21T05:34:06.094Z,1008.89
2017-02-21T05:35:15.843Z,1008.94
2017-02-21T05:36:25.587Z,1008.88
2017-02-21T05:37:35.786Z,1008.89
2017-02-21T05:38:45.146Z,1008.85
2017-02-21T05:39:54.492Z,1008.79
2017-02-21T05:41:03.826Z,1008.88
2017-02-21T05:42:12.746Z,1008.85
2017-02-21T05:43:22.097Z,1008.89
2017-02-21T05:44:31.183Z,1008.95
2017-02-21T05:45:40.958Z,1008.91
2017-02-21T05:46:50.314Z,1008.98
2017-02-21T05:47:59.260Z,1008.91
2017-02-21T05:49:09.423Z,1009.01
2017-02-21T05:50:18.820Z,1008.99
2017-02-21T05:51:27.769Z,1009
2017-02-21T05:52:37.925Z,1008.99
2017-02-21T05:53:47.276Z,1009.03
2017-02-21T05:54:57.028Z,1009.13
2017-02-21T05:56:06.946Z,1009.07
2017-02-21T05:57:15.869Z,1009.01
2017-02-21T05:58:25.230Z,1009.09
2017-02-21T05:59:34.563Z,1009.11
2017-02-21T06:00:43.484Z,1009.05
2017-02-21T06:01:53.013Z,1009.07
2017-02-21T06:03:02.350Z,1009.09
2017-02-21T06:04:11.268Z,1009.12
2017-02-21T06:05:20.616Z,1009.23
2017-02-21T06:06:30.376Z,1009.16
2017-02-21T06:07:39.767Z,1009.36
2017-02-21T06:08:49.112Z,1009.35
2017-02-21T06:09:58.852Z,1009.35
2017-02-21T06:11:07.775Z,1009.4
2017-02-21T06:12:17.111Z,1009.38
2017-02-21T06:13:26.521Z,1009.39
2017-02-21T06:14:36.253Z,1009.35
2017-02-21T06:15:45.600Z,1009.42
2017-02-21T06:16:55.337Z,1009.49
2017-02-21T06:18:05.076Z,1009.44
2017-02-21T06:19:15.383Z,1009.46
2017-02-21T06:20:24.727Z,1009.54
2017-02-21T06:21:34.894Z,1009.55
2017-02-21T06:22:44.228Z,1009.47
2017-02-21T06:23:53.172Z,1009.48
2017-02-21T06:25:02.669Z,1009.57
2017-02-21T06:26:12.029Z,1009.48
2017-02-21T06:27:21.772Z,1009.52
2017-02-21T06:28:31.513Z,1009.6
2017-02-21T06:29:40.432Z,1009.58
2017-02-21T06:30:49.659Z,1009.53
2017-02-21T06:31:59.008Z,1009.65
2017-02-21T06:33:07.971Z,1009.71
2017-02-21T06:34:17.697Z,1009.69
2017-02-21T06:35:27.437Z,1009.63
2017-02-21T06:36:36.512Z,1009.68
2017-02-21T06:37:45.445Z,1009.63
2017-02-21T06:38:54.764Z,1009.6
2017-02-21T06:40:04.096Z,1009.73
2017-02-21T06:41:14.234Z,1009.66
2017-02-21T06:42:24.545Z,1009.69
2017-02-21T06:43:33.870Z,1009.76
2017-02-21T06:44:44.011Z,1009.8
2017-02-21T06:45:53.758Z,1009.82
2017-02-21T06:47:03.945Z,1009.79
2017-02-21T06:48:14.209Z,1009.81
2017-02-21T06:49:23.966Z,1009.83
2017-02-21T06:50:33.280Z,1009.84
2017-02-21T06:51:43.832Z,1009.86
2017-02-21T06:52:53.167Z,1009.92
2017-02-21T06:54:02.948Z,1009.84
2017-02-21T06:55:11.862Z,1009.89
2017-02-21T06:56:22.406Z,1009.9
2017-02-21T06:57:31.729Z,1009.88
2017-02-21T06:58:41.864Z,1009.9
2017-02-21T06:59:51.264Z,1009.92
2017-02-21T07:01:00.660Z,1009.87
2017-02-21T07:02:10.032Z,1009.95
2017-02-21T07:03:20.197Z,1010
2017-02-21T07:04:29.526Z,1010.02
2017-02-21T07:05:39.013Z,1010.03
2017-02-21T07:06:47.944Z,1010.04
2017-02-21T07:07:57.284Z,1010.01
2017-02-21T07:09:06.610Z,1010.03
2017-02-21T07:10:15.931Z,1010.07
2017-02-21T07:11:26.017Z,1010.06
2017-02-21T07:12:35.346Z,1010.12
2017-02-21T07:13:45.906Z,1010.08
2017-02-21T07:14:55.237Z,1010.13
2017-02-21T07:16:05.388Z,1010.11
2017-02-21T07:17:15.020Z,1010.18
2017-02-21T07:18:25.159Z,1010.24
2017-02-21T07:19:34.507Z,1010.21
2017-02-21T07:20:44.247Z,1010.22
2017-02-21T07:21:53.161Z,1010.17
2017-02-21T07:23:02.232Z,1010.2
2017-02-21T07:24:11.568Z,1010.21
2017-02-21T07:25:21.319Z,1010.18
2017-02-21T07:26:30.659Z,1010.23
2017-02-21T07:27:40.009Z,1010.23
2017-02-21T07:28:50.202Z,1010.21
2017-02-21T07:29:59.953Z,1010.25
2017-02-21T07:31:09.690Z,1010.22
2017-02-21T07:32:19.030Z,1010.2
2017-02-21T07:33:28.767Z,1010.33
2017-02-21T07:34:38.148Z,1010.28
2017-02-21T07:35:47.494Z,1010.35
2017-02-21T07:36:56.831Z,1010.3
2017-02-21T07:38:05.782Z,1010.37
2017-02-21T07:39:14.695Z,1010.36
2017-02-21T07:40:24.913Z,1010.28
2017-02-21T07:41:35.071Z,1010.33
2017-02-21T07:42:44.401Z,1010.29
2017-02-21T07:43:53.736Z,1010.26
2017-02-21T07:45:03.495Z,1010.31
2017-02-21T07:46:12.972Z,1010.32
2017-02-21T07:47:21.891Z,1010.39
2017-02-21T07:48:32.040Z,1010.32
2017-02-21T07:49:41.387Z,1010.3
2017-02-21T07:50:51.148Z,1010.36
2017-02-21T07:52:01.038Z,1010.3
2017-02-21T07:53:10.372Z,1010.31
2017-02-21T07:54:20.113Z,1010.36
2017-02-21T07:55:29.862Z,1010.39
2017-02-21T07:56:39.207Z,1010.34
2017-02-21T07:57:48.545Z,1010.33
2017-02-21T07:58:59.095Z,1010.37
2017-02-21T08:00:08.845Z,1010.39
2017-02-21T08:01:19.005Z,1010.42
2017-02-21T08:02:29.576Z,1010.39
2017-02-21T08:03:39.789Z,1010.41
2017-02-21T08:04:48.756Z,1010.42
2017-02-21T08:05:58.492Z,1010.39
2017-02-21T08:07:08.259Z,1010.43
2017-02-21T08:08:17.173Z,1010.47
2017-02-21T08:09:26.670Z,1010.46
2017-02-21T08:10:36.817Z,1010.56
2017-02-21T08:11:46.960Z,1010.55
2017-02-21T08:12:56.299Z,1010.5
2017-02-21T08:14:06.066Z,1010.6
2017-02-21T08:15:15.040Z,1010.62
2017-02-21T08:16:24.374Z,1010.64
2017-02-21T08:17:33.695Z,1010.62
2017-02-21T08:18:43.015Z,1010.6
2017-02-21T08:19:52.768Z,1010.65
2017-02-21T08:21:02.250Z,1010.65
2017-02-21T08:22:11.207Z,1010.67
2017-02-21T08:23:20.958Z,1010.64
2017-02-21T08:24:30.329Z,1010.69
2017-02-21T08:25:40.096Z,1010.63
2017-02-21T08:26:50.311Z,1010.68
2017-02-21T08:27:59.640Z,1010.65
2017-02-21T08:29:09.785Z,1010.64
2017-02-21T08:30:19.104Z,1010.58
2017-02-21T08:31:28.445Z,1010.64
2017-02-21T08:32:38.329Z,1010.58
2017-02-21T08:33:47.267Z,1010.6
2017-02-21T08:34:57.409Z,1010.58
2017-02-21T08:36:07.167Z,1010.51
2017-02-21T08:37:16.901Z,1010.58
2017-02-21T08:38:26.231Z,1010.55
2017-02-21T08:39:35.165Z,1010.56
2017-02-21T08:40:44.912Z,1010.57
2017-02-21T08:41:54.666Z,1010.56
2017-02-21T08:43:03.996Z,1010.64
2017-02-21T08:44:12.961Z,1010.6
2017-02-21T08:45:22.286Z,1010.74
2017-02-21T08:46:31.215Z,1010.72
2017-02-21T08:47:40.134Z,1010.72
2017-02-21T08:48:50.303Z,1010.68
2017-02-21T08:50:00.039Z,1010.74
2017-02-21T08:51:09.790Z,1010.76
2017-02-21T08:52:19.114Z,1010.78
2017-02-21T08:53:28.838Z,1010.77
2017-02-21T08:54:38.982Z,1010.75
2017-02-21T08:55:49.278Z,1010.85
2017-02-21T08:56:58.219Z,1010.82
2017-02-21T08:58:07.539Z,1010.92
2017-02-21T08:59:17.271Z,1010.85
2017-02-21T09:00:26.587Z,1010.89
2017-02-21T09:01:36.177Z,1010.9
2017-02-21T09:02:45.505Z,1010.94
2017-02-21T09:03:54.439Z,1010.98
2017-02-21T09:05:03.763Z,1010.93
2017-02-21T09:06:13.500Z,1010.93
2017-02-21T09:07:23.719Z,1010.94
2017-02-21T09:08:33.471Z,1010.95
2017-02-21T09:09:42.390Z,1010.94
2017-02-21T09:10:51.711Z,1011.09
2017-02-21T09:12:00.648Z,1011.03
2017-02-21T09:13:10.029Z,1011.02
2017-02-21T09:14:19.781Z,1011.05
2017-02-21T09:15:29.117Z,1011.05
2017-02-21T09:16:38.044Z,1011.04
2017-02-21T09:17:47.809Z,1011.1
2017-02-21T09:18:57.285Z,1011.12
2017-02-21T09:20:06.209Z,1011.05
2017-02-21T09:21:15.535Z,1011.07
2017-02-21T09:22:25.281Z,1011.14
2017-02-21T09:23:35.048Z,1011.06
2017-02-21T09:24:44.842Z,1011.07
2017-02-21T09:25:54.188Z,1011.13
2017-02-21T09:27:03.525Z,1011.13
2017-02-21T09:28:12.459Z,1011.19
2017-02-21T09:29:22.202Z,1011.17
2017-02-21T09:30:32.640Z,1011.28
2017-02-21T09:31:41.995Z,1011.36
2017-02-21T09:32:51.316Z,1011.29
2017-02-21T09:34:01.050Z,1011.29
2017-02-21T09:35:10.372Z,1011.25
2017-02-21T09:36:20.000Z,1011.28
2017-02-21T09:37:29.327Z,1011.31
2017-02-21T09:38:38.650Z,1011.31
2017-02-21T09:39:47.979Z,1011.31
2017-02-21T09:40:58.551Z,1011.41
2017-02-21T09:42:07.969Z,1011.4
2017-02-21T09:43:16.897Z,1011.44
2017-02-21T09:44:26.646Z,1011.44
2017-02-21T09:45:36.789Z,1011.42
2017-02-21T09:46:46.113Z,1011.41
2017-02-21T09:47:55.495Z,1011.45
2017-02-21T09:49:04.441Z,1011.42
2017-02-21T09:50:14.195Z,1011.5
2017-02-21T09:51:23.945Z,1011.54
2017-02-21T09:52:33.298Z,1011.53
2017-02-21T09:53:42.530Z,1011.47
2017-02-21T09:54:51.862Z,1011.59
2017-02-21T09:56:01.606Z,1011.53
2017-02-21T09:57:10.922Z,1011.52
2017-02-21T09:58:19.840Z,1011.59
2017-02-21T09:59:28.974Z,1011.63
2017-02-21T10:00:38.302Z,1011.63
2017-02-21T10:01:47.214Z,1011.67
2017-02-21T10:02:56.977Z,1011.6
2017-02-21T10:04:06.329Z,1011.67
2017-02-21T10:05:15.702Z,1011.68
2017-02-21T10:06:25.031Z,1011.59
2017-02-21T10:07:34.368Z,1011.61
2017-02-21T10:08:43.690Z,1011.63
2017-02-21T10:09:53.425Z,1011.63
2017-02-21T10:11:02.975Z,1011.58
2017-02-21T10:12:12.725Z,1011.59
2017-02-21T10:13:22.883Z,1011.47
2017-02-21T10:14:32.244Z,1011.55
2017-02-21T10:15:41.568Z,1011.57
2017-02-21T10:16:51.371Z,1011.56
2017-02-21T10:18:01.110Z,1011.49
2017-02-21T10:19:11.671Z,1011.5
2017-02-21T10:20:21.014Z,1011.52
2017-02-21T10:21:30.761Z,1011.62
2017-02-21T10:22:40.648Z,1011.53
2017-02-21T10:23:49.975Z,1011.58
2017-02-21T10:24:59.303Z,1011.59
2017-02-21T10:26:09.042Z,1011.6
2017-02-21T10:27:19.189Z,1011.51
2017-02-21T10:28:28.660Z,1011.53
2017-02-21T10:29:37.981Z,1011.56
2017-02-21T10:30:47.309Z,1011.52
2017-02-21T10:31:56.670Z,1011.58
2017-02-21T10:33:06.024Z,1011.6
2017-02-21T10:34:16.464Z,1011.63
2017-02-21T10:35:25.408Z,1011.56
2017-02-21T10:36:35.568Z,1011.63
2017-02-21T10:37:44.917Z,1011.74
2017-02-21T10:38:55.079Z,1011.72
2017-02-21T10:40:04.575Z,1011.67
2017-02-21T10:41:13.921Z,1011.72
2017-02-21T10:42:23.276Z,1011.67
2017-02-21T10:43:32.621Z,1011.63
2017-02-21T10:44:41.944Z,1011.72
2017-02-21T10:45:51.788Z,1011.81
2017-02-21T10:47:01.524Z,1011.78
2017-02-21T10:48:11.277Z,1011.86
2017-02-21T10:49:20.201Z,1011.79
2017-02-21T10:50:29.130Z,1011.85
2017-02-21T10:51:38.929Z,1011.88
2017-02-21T10:52:48.658Z,1011.83
2017-02-21T10:53:58.003Z,1011.79
2017-02-21T10:55:06.936Z,1011.78
2017-02-21T10:56:15.871Z,1011.89
2017-02-21T10:57:25.780Z,1011.85
2017-02-21T10:58:35.531Z,1011.84
2017-02-21T10:59:45.679Z,1011.83
2017-02-21T11:00:54.631Z,1011.83
2017-02-21T11:02:04.783Z,1011.77
2017-02-21T11:03:14.689Z,1011.79
2017-02-21T11:04:24.015Z,1011.85
2017-02-21T11:05:34.164Z,1011.82
2017-02-21T11:06:44.324Z,1011.83
2017-02-21T11:07:53.646Z,1011.86
2017-02-21T11:09:03.021Z,1011.79
2017-02-21T11:10:12.342Z,1011.84
2017-02-21T11:11:21.692Z,1011.91
2017-02-21T11:12:30.609Z,1011.86
2017-02-21T11:13:39.963Z,1011.91
2017-02-21T11:14:49.374Z,1011.83
2017-02-21T11:15:59.101Z,1011.89
2017-02-21T11:17:08.025Z,1011.9
2017-02-21T11:18:17.771Z,1011.97
2017-02-21T11:19:27.102Z,1011.87
2017-02-21T11:20:36.089Z,1011.92
2017-02-21T11:21:45.420Z,1011.94
2017-02-21T11:22:55.170Z,1011.85
2017-02-21T11:24:04.917Z,1011.96
2017-02-21T11:25:14.262Z,1011.93
2017-02-21T11:26:23.331Z,1011.95
2017-02-21T11:27:32.672Z,1012.01
2017-02-21T11:28:42.435Z,1012.01
2017-02-21T11:29:52.583Z,1011.88
2017-02-21T11:31:01.522Z,1011.96
2017-02-21T11:32:10.647Z,1011.92
2017-02-21T11:33:20.393Z,1011.99
2017-02-21T11:34:30.561Z,1012.16
2017-02-21T11:35:40.296Z,1012.09
2017-02-21T11:36:50.045Z,1012.04
2017-02-21T11:37:59.942Z,1012.06
2017-02-21T11:39:08.861Z,1012.18
2017-02-21T11:40:18.220Z,1012.05
2017-02-21T11:41:27.976Z,1012.06
2017-02-21T11:42:37.301Z,1012.07
2017-02-21T11:43:46.678Z,1012.03
2017-02-21T11:44:56.014Z,1012
2017-02-21T11:46:05.363Z,1012.02
2017-02-21T11:47:14.698Z,1011.99
2017-02-21T11:48:24.434Z,1012
2017-02-21T11:49:33.834Z,1012.06
2017-02-21T11:50:43.161Z,1012.03
2017-02-21T11:51:53.302Z,1011.99
2017-02-21T11:53:03.047Z,1012.04
2017-02-21T11:54:12.374Z,1011.99
2017-02-21T11:55:21.883Z,1012
2017-02-21T11:56:31.645Z,1012.02
2017-02-21T11:57:40.980Z,1012.01
2017-02-21T11:58:50.303Z,1012.03
2017-02-21T12:00:00.037Z,1012.06
2017-02-21T12:01:09.150Z,1012.05
2017-02-21T12:02:18.525Z,1012.05
2017-02-21T12:03:28.275Z,1012.03
2017-02-21T12:04:38.444Z,1012.12
2017-02-21T12:05:48.207Z,1012.12
2017-02-21T12:06:57.293Z,1012.11
2017-02-21T12:08:06.647Z,1012.09
2017-02-21T12:09:15.582Z,1012.09
2017-02-21T12:10:24.925Z,1012.12
2017-02-21T12:11:34.246Z,1011.98
2017-02-21T12:12:43.479Z,1012.07
2017-02-21T12:13:52.823Z,1012.02
2017-02-21T12:15:02.180Z,1011.98
2017-02-21T12:16:11.126Z,1012.07
2017-02-21T12:17:20.453Z,1012.07
2017-02-21T12:18:29.951Z,1011.98
2017-02-21T12:19:39.310Z,1012.02
2017-02-21T12:20:49.064Z,1012.08
2017-02-21T12:21:58.403Z,1012.07
2017-02-21T12:23:08.580Z,1012.13
2017-02-21T12:24:18.081Z,1012.24
2017-02-21T12:25:27.000Z,1012.16
2017-02-21T12:26:36.747Z,1012.13
2017-02-21T12:27:46.095Z,1012.1
2017-02-21T12:28:55.425Z,1012.27
2017-02-21T12:30:05.572Z,1012.07
2017-02-21T12:31:14.494Z,1012.15
2017-02-21T12:32:24.236Z,1012.03
2017-02-21T12:33:33.171Z,1012.18
2017-02-21T12:34:42.540Z,1012.01
2017-02-21T12:35:52.422Z,1012.04
2017-02-21T12:37:01.744Z,1012.09
2017-02-21T12:38:11.072Z,1011.95
2017-02-21T12:39:20.418Z,1012.23
2017-02-21T12:40:30.151Z,1012.08
2017-02-21T12:41:40.242Z,1012.17
2017-02-21T12:42:50.390Z,1012.05
2017-02-21T12:44:00.544Z,1012
2017-02-21T12:45:09.873Z,1011.97
2017-02-21T12:46:19.208Z,1011.98
2017-02-21T12:47:29.028Z,1011.99
2017-02-21T12:48:38.385Z,1012.03
2017-02-21T12:49:48.138Z,1011.97
2017-02-21T12:50:57.909Z,1011.96
2017-02-21T12:52:07.665Z,1011.95
2017-02-21T12:53:17.149Z,1011.98
2017-02-21T12:54:26.478Z,1011.99
2017-02-21T12:55:36.226Z,1012
2017-02-21T12:56:45.849Z,1012.08
2017-02-21T12:57:55.600Z,1012.04
2017-02-21T12:59:05.971Z,1012.13
2017-02-21T13:00:15.357Z,1012.08
2017-02-21T13:01:24.286Z,1012.06
2017-02-21T13:02:33.631Z,1012.09
2017-02-21T13:03:42.971Z,1012.01
2017-02-21T13:04:52.755Z,1012.06
2017-02-21T13:06:02.086Z,1012.1
2017-02-21T13:07:11.430Z,1012.09
2017-02-21T13:08:20.350Z,1012.08
2017-02-21T13:09:29.273Z,1012.1
2017-02-21T13:10:39.070Z,1012.12
2017-02-21T13:11:48.012Z,1012.08
2017-02-21T13:12:57.343Z,1012.1
2017-02-21T13:14:07.504Z,1012.1
2017-02-21T13:15:16.849Z,1012.15
2017-02-21T13:16:26.520Z,1012.18
2017-02-21T13:17:35.441Z,1012.17
2017-02-21T13:18:45.184Z,1012.12
2017-02-21T13:19:54.506Z,1012.11
2017-02-21T13:21:04.250Z,1012.1
2017-02-21T13:22:13.701Z,1012.17
2017-02-21T13:23:22.656Z,1012.13
2017-02-21T13:24:31.998Z,1012.12
2017-02-21T13:25:40.929Z,1012.22
2017-02-21T13:26:50.257Z,1012.16
2017-02-21T13:27:59.421Z,1012.17
2017-02-21T13:29:08.351Z,1012.23
2017-02-21T13:30:17.268Z,1012.15
2017-02-21T13:31:27.020Z,1012.17
2017-02-21T13:32:36.351Z,1012.17
2017-02-21T13:33:46.241Z,1012.21
2017-02-21T13:34:55.189Z,1012.15
2017-02-21T13:36:04.139Z,1012.26
2017-02-21T13:37:13.915Z,1012.19
2017-02-21T13:38:23.693Z,1012.19
2017-02-21T13:39:32.894Z,1012.2
2017-02-21T13:40:41.833Z,1012.24
2017-02-21T13:41:51.990Z,1012.27
2017-02-21T13:43:02.160Z,1012.23
2017-02-21T13:44:11.893Z,1012.2
2017-02-21T13:45:21.282Z,1012.29
2017-02-21T13:46:30.207Z,1012.26
2017-02-21T13:47:39.542Z,1012.2
2017-02-21T13:48:48.869Z,1012.24
2017-02-21T13:49:59.045Z,1012.24
2017-02-21T13:51:08.431Z,1012.26
2017-02-21T13:52:17.364Z,1012.3
2017-02-21T13:53:26.738Z,1012.22
2017-02-21T13:54:36.072Z,1012.37
2017-02-21T13:55:45.414Z,1012.32
2017-02-21T13:56:54.483Z,1012.29
2017-02-21T13:58:03.847Z,1012.27
2017-02-21T13:59:13.182Z,1012.21
2017-02-21T14:00:22.932Z,1012.29
2017-02-21T14:01:33.502Z,1012.27
2017-02-21T14:02:42.773Z,1012.24
2017-02-21T14:03:52.389Z,1012.27